Time;durP1;ratioP1;P1;durP2;ratioP2;P2;SDS_P1;SDS_P2;PMS_P1;PMS_P2;Temp;Humidity;BMP_temperature;BMP_pressure;BME280_temperature;BME280_humidity;BME280_pressure;Samples;Min_cycle;Max_cycle;Signal;HPM_P1;HPM_P2
2023/03/11 00:00:31;;;;;;;;;;;;;;;0.51;90.57;100684.28;5014984;28;19917;-62
2023/03/11 00:02:57;;;;;;;;;;;;;;;0.49;90.42;100680.13;5018334;28;19914;-61
2023/03/11 00:05:24;;;;;;;;;;;;;;;0.46;90.44;100680.34;5017318;28;19921;-61
2023/03/11 00:07:50;;;;;;;;;;;;;;;0.44;90.45;100682.22;5018976;28;19922;-61
2023/03/11 00:10:18;;;;;;;;;;;;;;;0.43;90.52;100685.78;5024764;28;19917;-61
2023/03/11 00:12:43;;;;;;;;;;;;;;;0.42;90.58;100686.72;5018549;28;20363;-61
2023/03/11 00:15:09;;;;;;;;;;;;;;;0.40;90.53;100686.84;5025196;28;20315;-62
2023/03/11 00:17:34;;;;;;;;;;;;;;;0.40;90.71;100680.78;5023485;28;19913;-61
2023/03/11 00:19:59;;;;;;;;;;;;;;;0.42;90.25;100681.50;5014777;28;19921;-61
2023/03/11 00:22:24;;;;;;;;;;;;;;;0.43;90.44;100688.41;5021015;28;19966;-61
2023/03/11 00:24:49;;;;;;;;;;;;;;;0.44;90.05;100695.28;5031144;28;20513;-61
2023/03/11 00:27:14;;;;;;;;;;;;;;;0.43;89.89;100698.84;5030072;28;19963;-61
2023/03/11 00:29:40;;;;;;;;;;;;;;;0.34;89.34;100702.13;5022519;28;19917;-61
2023/03/11 00:32:05;;;;;;;;;;;;;;;0.17;89.25;100704.13;5030883;28;19963;-61
2023/03/11 00:34:30;;;;;;;;;;;;;;;0.00;89.24;100712.31;5028741;28;19917;-61
2023/03/11 00:36:55;;;;;;;;;;;;;;;-0.13;89.11;100716.69;5030960;28;19959;-61
2023/03/11 00:39:22;;;;;;;;;;;;;;;-0.22;88.83;100719.94;5028107;28;19917;-61
2023/03/11 00:41:47;;;;;;;;;;;;;;;-0.27;89.00;100722.03;5020406;28;19917;-61
2023/03/11 00:44:12;;;;;;;;;;;;;;;-0.35;89.03;100728.56;5030669;28;19921;-61
2023/03/11 00:46:37;;;;;;;;;;;;;;;-0.42;89.00;100737.75;5020166;28;19921;-61
2023/03/11 00:49:02;;;;;;;;;;;;;;;-0.45;89.25;100739.75;5023808;28;20000;-61
2023/03/11 00:51:28;;;;;;;;;;;;;;;-0.55;88.97;100744.75;5016317;28;20429;-61
2023/03/11 00:53:53;;;;;;;;;;;;;;;-0.60;88.87;100746.81;5017425;28;19963;-61
2023/03/11 00:56:18;;;;;;;;;;;;;;;-0.65;88.94;100734.06;5022782;28;19999;-61
2023/03/11 00:58:44;;;;;;;;;;;;;;;-0.69;89.11;100739.59;5024279;28;19928;-61
2023/03/11 01:01:11;;;;;;;;;;;;;;;-0.74;89.08;100736.47;5016981;28;19983;-61
2023/03/11 01:03:37;;;;;;;;;;;;;;;-0.77;89.12;100739.28;5026693;28;19920;-61
2023/03/11 01:06:02;;;;;;;;;;;;;;;-0.79;89.07;100747.19;5020855;28;19996;-61
2023/03/11 01:08:28;;;;;;;;;;;;;;;-0.81;89.10;100750.84;5024548;28;19953;-61
2023/03/11 01:10:54;;;;;;;;;;;;;;;-0.82;89.11;100757.00;5022499;28;19924;-61
2023/03/11 01:13:19;;;;;;;;;;;;;;;-0.87;89.24;100759.03;5030813;28;19920;-61
2023/03/11 01:15:44;;;;;;;;;;;;;;;-0.95;89.14;100762.97;5021448;28;19923;-61
2023/03/11 01:18:09;;;;;;;;;;;;;;;-0.98;89.26;100772.78;5026851;28;19953;-61
2023/03/11 01:20:35;;;;;;;;;;;;;;;-1.01;89.26;100773.81;5025005;28;19924;-61
2023/03/11 01:23:01;;;;;;;;;;;;;;;-1.05;89.22;100772.34;5020470;28;19921;-61
2023/03/11 01:25:26;;;;;;;;;;;;;;;-1.05;89.33;100777.53;5023392;28;19922;-61
2023/03/11 01:27:51;;;;;;;;;;;;;;;-1.06;89.17;100767.22;5020036;28;19983;-61
2023/03/11 01:30:18;;;;;;;;;;;;;;;-1.05;89.45;100774.09;5017706;28;19931;-61
2023/03/11 01:32:43;;;;;;;;;;;;;;;-1.07;89.41;100776.81;5025542;28;19925;-60
2023/03/11 01:35:11;;;;;;;;;;;;;;;-1.05;89.63;100774.94;5022857;28;19925;-61
2023/03/11 01:37:36;;;;;;;;;;;;;;;-1.05;89.48;100780.16;5026430;28;19964;-61
2023/03/11 01:40:01;;;;;;;;;;;;;;;-1.05;89.58;100767.13;5025907;28;19918;-61
2023/03/11 01:42:26;;;;;;;;;;;;;;;-1.04;89.40;100768.78;5023680;28;19924;-61
2023/03/11 01:44:51;;;;;;;;;;;;;;;-1.01;89.67;100771.19;5019221;28;20020;-61
2023/03/11 01:47:36;;;;;;;;;;;;;;;-0.99;89.55;100774.53;5023468;28;20401;-61
2023/03/11 01:50:03;;;;;;;;;;;;;;;-0.98;89.46;100781.44;5021843;28;20579;-61
2023/03/11 01:52:29;;;;;;;;;;;;;;;-0.95;89.03;100783.00;5016329;28;19980;-60
2023/03/11 01:54:54;;;;;;;;;;;;;;;-0.94;88.86;100780.28;5026812;28;20374;-61
2023/03/11 01:57:20;;;;;;;;;;;;;;;-0.93;89.03;100774.13;5027084;28;20504;-61
2023/03/11 01:59:50;;;;;;;;;;;;;;;-0.90;88.88;100788.75;5026498;28;20499;-61
2023/03/11 02:02:21;;;;;;;;;;;;;;;-0.91;88.79;100774.03;5017397;28;19979;-62
2023/03/11 02:04:47;;;;;;;;;;;;;;;-0.91;88.59;100781.84;5020818;28;19944;-61
2023/03/11 02:07:12;;;;;;;;;;;;;;;-0.89;88.33;100779.16;5020372;28;20490;-61
2023/03/11 02:09:38;;;;;;;;;;;;;;;-0.88;88.45;100773.00;5019922;28;19924;-61
2023/03/11 02:12:04;;;;;;;;;;;;;;;-0.87;88.08;100772.91;5019443;28;19965;-61
2023/03/11 02:14:30;;;;;;;;;;;;;;;-0.85;87.98;100778.03;5012375;28;19917;-61
2023/03/11 02:16:56;;;;;;;;;;;;;;;-0.86;87.57;100786.81;5011155;28;19967;-61
2023/03/11 02:19:36;;;;;;;;;;;;;;;-0.89;87.53;100785.19;5015180;28;19917;-61
2023/03/11 02:22:02;;;;;;;;;;;;;;;-0.92;87.43;100788.00;5019794;28;19921;-61
2023/03/11 02:24:36;;;;;;;;;;;;;;;-0.93;87.35;100784.56;5023869;28;19929;-61
2023/03/11 02:27:09;;;;;;;;;;;;;;;-0.94;87.55;100793.31;5028348;28;19967;-61
2023/03/11 02:29:35;;;;;;;;;;;;;;;-0.94;87.43;100790.72;5025743;28;19928;-61
2023/03/11 02:32:03;;;;;;;;;;;;;;;-0.94;87.50;100788.09;5022384;28;19925;-61
2023/03/11 02:34:30;;;;;;;;;;;;;;;-0.95;87.48;100791.66;5018513;28;19925;-61
2023/03/11 02:36:56;;;;;;;;;;;;;;;-0.98;87.32;100789.25;5022705;28;20464;-60
2023/03/11 02:39:31;;;;;;;;;;;;;;;-0.96;87.18;100786.53;5021179;28;20012;-60
2023/03/11 02:41:57;;;;;;;;;;;;;;;-0.96;87.25;100779.56;5015544;28;19925;-61
2023/03/11 02:44:22;;;;;;;;;;;;;;;-0.96;87.31;100787.38;5016985;28;20385;-60
2023/03/11 02:46:47;;;;;;;;;;;;;;;-0.96;87.37;100784.75;5022389;28;19921;-61
2023/03/11 02:49:13;;;;;;;;;;;;;;;-0.97;87.37;100783.09;5024742;28;19953;-61
2023/03/11 02:51:38;;;;;;;;;;;;;;;-0.94;87.51;100785.50;5013595;28;19936;-61
2023/03/11 02:54:04;;;;;;;;;;;;;;;-0.91;87.52;100789.69;5025379;28;19924;-61
2023/03/11 02:56:29;;;;;;;;;;;;;;;-0.87;87.81;100779.88;5027663;28;19921;-60
2023/03/11 02:58:55;;;;;;;;;;;;;;;-0.90;87.94;100769.66;5025081;28;20318;-61
2023/03/11 03:01:20;;;;;;;;;;;;;;;-0.80;88.17;100781.19;5018166;28;19921;-60
2023/03/11 03:03:45;;;;;;;;;;;;;;;-0.76;88.22;100785.25;5023829;28;19933;-60
2023/03/11 03:06:10;;;;;;;;;;;;;;;-0.76;88.37;100780.06;5025148;28;19917;-61
2023/03/11 03:08:36;;;;;;;;;;;;;;;-0.79;88.11;100782.84;5023631;28;20309;-61
2023/03/11 03:11:02;;;;;;;;;;;;;;;-0.79;88.11;100791.50;5021068;28;19920;-61
2023/03/11 03:13:28;;;;;;;;;;;;;;;-0.80;87.94;100796.81;5015016;28;20012;-61
2023/03/11 03:15:53;;;;;;;;;;;;;;;-0.84;87.81;100800.56;5026436;28;19917;-61
2023/03/11 03:18:18;;;;;;;;;;;;;;;-0.88;88.04;100804.28;5025509;28;19917;-61
2023/03/11 03:20:44;;;;;;;;;;;;;;;-0.91;87.81;100814.91;5023128;28;19928;-60
2023/03/11 03:23:09;;;;;;;;;;;;;;;-0.95;87.95;100817.72;5015198;28;20012;-61
2023/03/11 03:25:34;;;;;;;;;;;;;;;-0.94;87.90;100826.38;5025023;28;19928;-61
2023/03/11 03:27:59;;;;;;;;;;;;;;;-0.95;87.91;100828.13;5026135;28;20008;-61
2023/03/11 03:30:25;;;;;;;;;;;;;;;-0.93;87.99;100834.09;5018033;28;19984;-60
2023/03/11 03:32:50;;;;;;;;;;;;;;;-0.92;87.90;100842.75;5016998;28;19921;-60
2023/03/11 03:35:15;;;;;;;;;;;;;;;-0.94;87.85;100837.63;5021319;28;19932;-61
2023/03/11 03:37:40;;;;;;;;;;;;;;;-0.97;87.79;100837.81;5027644;28;20008;-61
2023/03/11 03:40:06;;;;;;;;;;;;;;;-1.00;87.81;100838.03;5015525;28;20355;-60
2023/03/11 03:42:32;;;;;;;;;;;;;;;-1.00;87.84;100847.63;5017268;28;19940;-60
2023/03/11 03:44:57;;;;;;;;;;;;;;;-1.02;87.74;100850.31;5022302;28;20333;-60
2023/03/11 03:47:22;;;;;;;;;;;;;;;-1.04;87.71;100846.97;5018099;28;19921;-61
2023/03/11 03:49:48;;;;;;;;;;;;;;;-1.04;87.77;100859.16;5024519;28;19928;-61
2023/03/11 03:52:14;;;;;;;;;;;;;;;-1.05;87.71;100853.13;5015734;28;20529;-61
2023/03/11 03:54:39;;;;;;;;;;;;;;;-1.06;87.86;100851.44;5023575;28;19918;-61
2023/03/11 03:57:04;;;;;;;;;;;;;;;-1.08;87.86;100848.09;5021559;28;20311;-61
2023/03/11 03:59:29;;;;;;;;;;;;;;;-1.10;87.79;100863.00;5028707;28;19975;-61
2023/03/11 04:01:55;;;;;;;;;;;;;;;-1.11;88.15;100861.31;5019698;28;19923;-61
2023/03/11 04:04:20;;;;;;;;;;;;;;;-1.13;88.17;100859.75;5026731;28;19970;-60
2023/03/11 04:06:45;;;;;;;;;;;;;;;-1.17;88.08;100864.28;5018833;28;20004;-61
2023/03/11 04:09:10;;;;;;;;;;;;;;;-1.19;88.21;100860.94;5019701;28;19917;-60
2023/03/11 04:11:36;;;;;;;;;;;;;;;-1.21;88.26;100865.41;5024570;28;20071;-60
2023/03/11 04:14:01;;;;;;;;;;;;;;;-1.23;88.31;100856.84;5022326;28;19917;-61
2023/03/11 04:16:26;;;;;;;;;;;;;;;-1.25;88.40;100866.53;5029874;28;19955;-60
2023/03/11 04:18:52;;;;;;;;;;;;;;;-1.29;88.27;100868.50;5025078;28;20008;-60
2023/03/11 04:21:17;;;;;;;;;;;;;;;-1.32;88.32;100873.06;5029137;28;19925;-61
2023/03/11 04:23:42;;;;;;;;;;;;;;;-1.37;88.24;100867.31;5023357;28;19923;-61
2023/03/11 04:26:07;;;;;;;;;;;;;;;-1.42;88.32;100875.41;5026065;28;20394;-60
2023/03/11 04:28:32;;;;;;;;;;;;;;;-1.46;88.38;100878.25;5036100;28;19917;-61
2023/03/11 04:30:57;;;;;;;;;;;;;;;-1.49;88.42;100876.69;5018789;28;20058;-61
2023/03/11 04:33:23;;;;;;;;;;;;;;;-1.48;88.52;100880.97;5023893;28;19925;-60
2023/03/11 04:35:48;;;;;;;;;;;;;;;-1.43;88.66;100878.94;5024832;28;19929;-61
2023/03/11 04:38:14;;;;;;;;;;;;;;;-1.37;89.01;100885.53;5027092;28;19971;-60
2023/03/11 04:40:39;;;;;;;;;;;;;;;-1.31;88.98;100879.94;5024713;28;20004;-61
2023/03/11 04:43:04;;;;;;;;;;;;;;;-1.26;89.12;100873.50;5028149;28;19971;-60
2023/03/11 04:45:29;;;;;;;;;;;;;;;-1.23;89.10;100877.69;5027379;28;21567;-60
2023/03/11 04:47:55;;;;;;;;;;;;;;;-1.18;89.00;100875.63;5023985;28;20003;-61
2023/03/11 04:50:20;;;;;;;;;;;;;;;-1.14;89.18;100877.16;5027453;28;19983;-61
2023/03/11 04:52:46;;;;;;;;;;;;;;;-1.11;89.20;100876.97;5027194;28;20334;-60
2023/03/11 04:55:12;;;;;;;;;;;;;;;-1.10;89.14;100878.63;5022212;28;19936;-61
2023/03/11 04:57:38;;;;;;;;;;;;;;;-1.12;89.16;100883.09;5018295;28;19967;-60
2023/03/11 05:00:07;;;;;;;;;;;;;;;-1.13;89.03;100891.03;5025966;28;20418;-61
2023/03/11 05:02:32;;;;;;;;;;;;;;;-1.15;89.07;100890.28;5020586;28;20410;-60
2023/03/11 05:04:57;;;;;;;;;;;;;;;-1.17;88.99;100885.13;5029393;28;19987;-61
2023/03/11 05:07:23;;;;;;;;;;;;;;;-1.17;88.85;100881.69;5022953;28;19917;-60
2023/03/11 05:09:48;;;;;;;;;;;;;;;-1.17;88.88;100881.69;5024498;28;20517;-61
2023/03/11 05:12:13;;;;;;;;;;;;;;;-1.19;88.92;100889.59;5025249;28;19921;-60
2023/03/11 05:14:39;;;;;;;;;;;;;;;-1.20;88.86;100882.72;5025367;28;19921;-61
2023/03/11 05:17:04;;;;;;;;;;;;;;;-1.22;88.78;100892.41;5022971;28;19996;-61
2023/03/11 05:19:29;;;;;;;;;;;;;;;-1.25;88.76;100895.19;5023856;28;20031;-61
2023/03/11 05:21:55;;;;;;;;;;;;;;;-1.27;88.89;100902.28;5026200;28;19917;-61
2023/03/11 05:24:20;;;;;;;;;;;;;;;-1.29;88.88;100907.56;5023695;28;19937;-61
2023/03/11 05:26:45;;;;;;;;;;;;;;;-1.29;88.81;100910.19;5017757;28;19974;-61
2023/03/11 05:29:10;;;;;;;;;;;;;;;-1.30;89.02;100905.06;5022119;28;19921;-61
2023/03/11 05:31:36;;;;;;;;;;;;;;;-1.29;88.89;100907.56;5014660;28;20405;-60
2023/03/11 05:34:01;;;;;;;;;;;;;;;-1.31;88.94;100898.19;5025409;28;20390;-61
2023/03/11 05:36:26;;;;;;;;;;;;;;;-1.33;88.88;100897.44;5019851;28;19960;-60
2023/03/11 05:38:52;;;;;;;;;;;;;;;-1.38;88.95;100905.53;5018375;28;20290;-61
2023/03/11 05:41:17;;;;;;;;;;;;;;;-1.44;88.86;100916.31;5026533;28;19917;-61
2023/03/11 05:43:42;;;;;;;;;;;;;;;-1.49;88.70;100918.34;5023299;28;19913;-61
2023/03/11 05:46:09;;;;;;;;;;;;;;;-1.52;88.95;100912.47;5018094;28;20517;-60
2023/03/11 05:48:35;;;;;;;;;;;;;;;-1.54;88.97;100924.75;5025420;28;19971;-61
2023/03/11 05:51:00;;;;;;;;;;;;;;;-1.56;89.08;100922.25;5024272;28;19917;-60
2023/03/11 05:53:25;;;;;;;;;;;;;;;-1.57;89.24;100929.22;5028463;28;19923;-60
2023/03/11 05:55:57;;;;;;;;;;;;;;;-1.57;89.10;100933.59;5022062;28;19921;-61
2023/03/11 05:58:22;;;;;;;;;;;;;;;-1.58;89.37;100937.97;5024900;28;19917;-60
2023/03/11 06:00:47;;;;;;;;;;;;;;;-1.59;89.38;100936.28;5023931;28;19925;-60
2023/03/11 06:03:12;;;;;;;;;;;;;;;-1.58;89.42;100929.31;5024232;28;19924;-61
2023/03/11 06:05:43;;;;;;;;;;;;;;;-1.56;89.43;100930.91;5015160;28;19922;-61
2023/03/11 06:08:08;;;;;;;;;;;;;;;-1.52;89.58;100941.13;5025786;28;19917;-61
2023/03/11 06:10:33;;;;;;;;;;;;;;;-1.51;89.59;100942.81;5018679;28;19924;-61
2023/03/11 06:12:58;;;;;;;;;;;;;;;-1.48;89.56;100953.03;5019751;28;20382;-61
2023/03/11 06:15:23;;;;;;;;;;;;;;;-1.46;89.60;100952.00;5017804;28;19923;-61
2023/03/11 06:17:49;;;;;;;;;;;;;;;-1.47;89.58;100952.09;5020863;28;20457;-61
2023/03/11 06:20:14;;;;;;;;;;;;;;;-1.47;89.53;100947.75;5021232;28;19960;-61
2023/03/11 06:22:39;;;;;;;;;;;;;;;-1.48;89.66;100951.28;5018908;28;19921;-60
2023/03/11 06:25:04;;;;;;;;;;;;;;;-1.49;89.62;100954.81;5022696;28;19921;-61
2023/03/11 06:27:29;;;;;;;;;;;;;;;-1.50;89.64;100967.91;5024266;28;19917;-61
2023/03/11 06:29:55;;;;;;;;;;;;;;;-1.57;89.57;100965.69;5028396;28;19967;-61
2023/03/11 06:32:20;;;;;;;;;;;;;;;-1.60;89.71;100960.66;5024377;28;20321;-60
2023/03/11 06:34:48;;;;;;;;;;;;;;;-1.62;89.71;100965.13;5022993;28;19928;-61
2023/03/11 06:37:13;;;;;;;;;;;;;;;-1.60;89.95;100973.69;5021962;28;19939;-61
2023/03/11 06:39:39;;;;;;;;;;;;;;;-1.57;89.95;100978.69;5024810;28;20399;-61
2023/03/11 06:42:08;;;;;;;;;;;;;;;-1.51;90.16;100977.50;5016007;28;19921;-61
2023/03/11 06:44:33;;;;;;;;;;;;;;;-1.45;90.24;100978.91;5021501;28;20401;-61
2023/03/11 06:46:58;;;;;;;;;;;;;;;-1.39;90.31;100991.59;5020331;28;19957;-61
2023/03/11 06:49:23;;;;;;;;;;;;;;;-1.34;90.32;100995.59;5025885;28;19971;-61
2023/03/11 06:51:48;;;;;;;;;;;;;;;-1.30;90.20;100998.84;5033641;28;19995;-61
2023/03/11 06:54:14;;;;;;;;;;;;;;;-1.29;90.20;101000.53;5023471;28;19964;-61
2023/03/11 06:56:41;;;;;;;;;;;;;;;-1.31;90.04;100999.78;5019945;28;22352;-61
2023/03/11 06:59:06;;;;;;;;;;;;;;;-1.31;90.10;101008.44;5018378;28;19924;-60
2023/03/11 07:01:31;;;;;;;;;;;;;;;-1.28;90.19;101015.22;5017958;28;19925;-60
2023/03/11 07:03:56;;;;;;;;;;;;;;;-1.21;90.22;101016.53;5021666;28;19932;-61
2023/03/11 07:06:23;;;;;;;;;;;;;;;-1.16;90.27;101024.91;5017782;28;19917;-61
2023/03/11 07:08:49;;;;;;;;;;;;;;;-1.09;90.24;101026.25;5015769;28;20390;-61
2023/03/11 07:11:16;;;;;;;;;;;;;;;-1.02;90.21;101035.34;5016494;28;20004;-61
2023/03/11 07:13:41;;;;;;;;;;;;;;;-0.96;90.20;101032.38;5019550;28;20420;-61
2023/03/11 07:16:11;;;;;;;;;;;;;;;-0.89;90.24;101035.44;5026094;28;19919;-61
2023/03/11 07:18:37;;;;;;;;;;;;;;;-0.79;90.33;101031.38;5018187;28;19928;-61
2023/03/11 07:21:03;;;;;;;;;;;;;;;-0.70;90.31;101024.75;5021343;28;19921;-60
2023/03/11 07:23:28;;;;;;;;;;;;;;;-0.60;90.18;101025.84;5020936;28;19925;-61
2023/03/11 07:25:54;;;;;;;;;;;;;;;-0.52;90.27;101031.47;5020961;28;20025;-61
2023/03/11 07:28:20;;;;;;;;;;;;;;;-0.45;90.00;101037.97;5026432;28;20000;-61
2023/03/11 07:30:47;;;;;;;;;;;;;;;-0.39;89.82;101032.34;5026804;28;20646;-61
2023/03/11 07:33:12;;;;;;;;;;;;;;;-0.28;89.91;101036.09;5034080;28;19913;-61
2023/03/11 07:35:37;;;;;;;;;;;;;;;-0.17;90.07;101038.84;5029608;28;20011;-61
2023/03/11 07:38:02;;;;;;;;;;;;;;;-0.08;89.98;101043.47;5027735;28;19971;-61
2023/03/11 07:40:28;;;;;;;;;;;;;;;0.02;89.85;101046.34;5017691;28;19917;-61
2023/03/11 07:42:53;;;;;;;;;;;;;;;0.12;89.53;101043.03;5026666;28;19925;-61
2023/03/11 07:45:18;;;;;;;;;;;;;;;0.23;89.06;101056.25;5030537;28;19929;-61
2023/03/11 07:47:43;;;;;;;;;;;;;;;0.34;89.07;101055.56;5026469;28;19917;-61
2023/03/11 07:50:09;;;;;;;;;;;;;;;0.46;89.04;101056.53;5029644;28;20481;-61
2023/03/11 07:52:34;;;;;;;;;;;;;;;0.46;88.46;101051.31;5031323;28;19917;-61
2023/03/11 07:54:59;;;;;;;;;;;;;;;0.58;87.90;101061.81;5019713;28;19924;-61
2023/03/11 07:57:24;;;;;;;;;;;;;;;0.67;87.76;101072.56;5024035;28;20012;-61
2023/03/11 07:59:49;;;;;;;;;;;;;;;0.77;87.34;101081.47;5030387;28;19917;-61
2023/03/11 08:02:15;;;;;;;;;;;;;;;0.84;87.08;101075.72;5021408;28;19924;-61
2023/03/11 08:04:40;;;;;;;;;;;;;;;0.91;86.54;101081.41;5016373;28;19928;-61
2023/03/11 08:07:05;;;;;;;;;;;;;;;0.98;86.68;101081.81;5022111;28;20002;-61
2023/03/11 08:09:30;;;;;;;;;;;;;;;1.03;86.43;101083.19;5025589;28;19925;-61
2023/03/11 08:11:55;;;;;;;;;;;;;;;1.08;86.29;101082.88;5033325;28;19913;-61
2023/03/11 08:14:21;;;;;;;;;;;;;;;1.15;86.25;101091.97;5026011;28;19937;-61
2023/03/11 08:16:46;;;;;;;;;;;;;;;1.19;86.15;101088.22;5023791;28;20390;-61
2023/03/11 08:19:12;;;;;;;;;;;;;;;1.23;85.87;101085.28;5022492;28;19920;-61
2023/03/11 08:21:37;;;;;;;;;;;;;;;1.35;86.03;101083.59;5021674;28;19940;-61
2023/03/11 08:24:02;;;;;;;;;;;;;;;1.47;85.87;101089.78;5033815;28;19917;-61
2023/03/11 08:26:28;;;;;;;;;;;;;;;1.59;85.81;101085.47;5023883;28;20521;-61
2023/03/11 08:28:54;;;;;;;;;;;;;;;1.68;84.75;101085.66;5028311;28;19921;-61
2023/03/11 08:31:24;;;;;;;;;;;;;;;1.79;84.29;101092.78;5030775;28;19917;-61
2023/03/11 08:33:50;;;;;;;;;;;;;;;1.89;84.08;101082.50;5028772;28;20520;-61
2023/03/11 08:36:15;;;;;;;;;;;;;;;2.00;83.97;101088.63;5025369;28;19917;-62
2023/03/11 08:38:41;;;;;;;;;;;;;;;2.10;83.90;101094.91;5028988;28;20398;-61
2023/03/11 08:41:06;;;;;;;;;;;;;;;2.22;83.92;101087.94;5022494;28;19917;-61
2023/03/11 08:43:31;;;;;;;;;;;;;;;2.28;83.67;101094.50;5026456;28;20007;-61
2023/03/11 08:45:58;;;;;;;;;;;;;;;2.35;82.99;101095.75;5027006;28;19925;-62
2023/03/11 08:48:24;;;;;;;;;;;;;;;2.38;82.85;101100.78;5023062;28;19917;-61
2023/03/11 08:50:49;;;;;;;;;;;;;;;2.41;82.42;101105.78;5021857;28;20035;-61
2023/03/11 08:53:14;;;;;;;;;;;;;;;2.41;82.69;101100.53;5026937;28;19918;-61
2023/03/11 08:55:40;;;;;;;;;;;;;;;2.51;81.50;101114.63;5026544;28;19961;-61
2023/03/11 08:58:05;;;;;;;;;;;;;;;2.63;81.28;101113.75;5022132;28;19967;-61
2023/03/11 09:00:30;;;;;;;;;;;;;;;2.70;80.54;101119.38;5029355;28;19952;-61
2023/03/11 09:02:55;;;;;;;;;;;;;;;2.76;80.38;101125.00;5024700;28;20294;-61
2023/03/11 09:05:20;;;;;;;;;;;;;;;2.80;79.54;101123.00;5022073;28;19932;-61
2023/03/11 09:07:46;;;;;;;;;;;;;;;2.95;78.87;101115.78;5026907;28;19928;-61
2023/03/11 09:10:15;;;;;;;;;;;;;;;3.13;78.77;101124.88;5020586;28;20386;-62
2023/03/11 09:12:40;;;;;;;;;;;;;;;3.36;78.78;101128.38;5026595;28;19940;-61
2023/03/11 09:15:06;;;;;;;;;;;;;;;3.51;78.88;101121.13;5020647;28;20466;-61
2023/03/11 09:17:31;;;;;;;;;;;;;;;3.57;78.38;101123.28;5022111;28;19967;-62
2023/03/11 09:19:56;;;;;;;;;;;;;;;3.60;77.83;101129.13;5018840;28;20306;-61
2023/03/11 09:22:22;;;;;;;;;;;;;;;3.74;77.62;101122.78;5023137;28;19917;-61
2023/03/11 09:24:47;;;;;;;;;;;;;;;3.92;78.08;101129.25;5017318;28;19932;-61
2023/03/11 09:27:14;;;;;;;;;;;;;;;4.07;77.97;101140.34;5015709;28;19945;-61
2023/03/11 09:29:39;;;;;;;;;;;;;;;4.15;77.12;101137.94;5021345;28;19917;-61
2023/03/11 09:32:05;;;;;;;;;;;;;;;4.23;76.51;101138.16;5016883;28;20008;-61
2023/03/11 09:34:30;;;;;;;;;;;;;;;4.33;76.31;101138.25;5011493;28;19913;-61
2023/03/11 09:36:55;;;;;;;;;;;;;;;4.48;75.34;101139.66;5021660;28;20449;-62
2023/03/11 09:39:20;;;;;;;;;;;;;;;4.69;76.25;101142.34;5020560;28;19917;-61
2023/03/11 09:41:46;;;;;;;;;;;;;;;4.83;75.24;101139.41;5018042;28;19931;-62
2023/03/11 09:44:11;;;;;;;;;;;;;;;5.02;74.35;101145.81;5022364;28;19921;-61
2023/03/11 09:46:36;;;;;;;;;;;;;;;5.14;73.29;101144.78;5020672;28;20229;-61
2023/03/11 09:49:07;;;;;;;;;;;;;;;5.10;71.10;101149.47;5029573;28;19917;-62
2023/03/11 09:51:37;;;;;;;;;;;;;;;4.92;69.98;101148.38;5017464;28;19963;-61
2023/03/11 09:54:03;;;;;;;;;;;;;;;4.87;70.74;101145.25;5023080;28;20286;-61
2023/03/11 09:56:30;;;;;;;;;;;;;;;4.95;71.25;101134.97;5013206;28;19921;-61
2023/03/11 09:58:59;;;;;;;;;;;;;;;5.04;70.91;101139.44;5019877;28;19913;-62
2023/03/11 10:01:32;;;;;;;;;;;;;;;4.94;69.71;101149.91;5018269;28;19924;-61
2023/03/11 10:04:02;;;;;;;;;;;;;;;5.01;69.99;101150.25;5016901;28;19952;-62
2023/03/11 10:06:28;;;;;;;;;;;;;;;5.04;70.18;101149.97;5025933;28;20008;-61
2023/03/11 10:08:59;;;;;;;;;;;;;;;4.98;69.75;101139.97;5022916;28;19917;-62
2023/03/11 10:11:33;;;;;;;;;;;;;;;4.93;69.31;101142.97;5021698;28;20409;-61
2023/03/11 10:14:09;;;;;;;;;;;;;;;4.99;69.40;101144.25;5023215;28;19932;-62
2023/03/11 10:16:44;;;;;;;;;;;;;;;5.09;69.49;101146.97;5021145;28;19924;-62
2023/03/11 10:19:21;;;;;;;;;;;;;;;5.22;68.76;101153.72;5027062;28;19913;-61
2023/03/11 10:21:54;;;;;;;;;;;;;;;5.28;67.23;101152.38;5011228;28;19921;-61
2023/03/11 10:24:38;;;;;;;;;;;;;;;5.28;67.35;101149.75;5021577;28;19928;-62
2023/03/11 10:27:10;;;;;;;;;;;;;;;5.25;66.06;101153.47;5009964;28;20021;-61
2023/03/11 10:29:47;;;;;;;;;;;;;;;5.32;66.93;101159.03;5020005;28;19920;-61
2023/03/11 10:32:16;;;;;;;;;;;;;;;5.45;67.11;101154.41;5018797;28;19964;-61
2023/03/11 10:34:51;;;;;;;;;;;;;;;5.61;67.60;101169.75;5015646;28;19948;-61
2023/03/11 10:37:19;;;;;;;;;;;;;;;5.74;67.06;101165.09;5020878;28;19913;-62
2023/03/11 10:39:45;;;;;;;;;;;;;;;5.86;66.67;101166.69;5018222;28;19926;-62
2023/03/11 10:42:12;;;;;;;;;;;;;;;5.97;67.31;101157.88;5014257;28;19913;-62
2023/03/11 10:44:38;;;;;;;;;;;;;;;5.99;66.75;101157.75;5021472;28;20455;-61
2023/03/11 10:47:04;;;;;;;;;;;;;;;5.99;66.22;101158.59;5021618;28;19951;-61
2023/03/11 10:49:29;;;;;;;;;;;;;;;6.06;66.07;101159.72;5019043;28;19967;-61
2023/03/11 10:51:55;;;;;;;;;;;;;;;6.03;65.33;101169.69;5025663;28;19913;-61
2023/03/11 10:54:26;;;;;;;;;;;;;;;5.93;64.58;101164.38;5026013;28;19920;-61
2023/03/11 10:57:02;;;;;;;;;;;;;;;5.94;65.03;101160.78;5023717;28;20408;-61
2023/03/11 10:59:45;;;;;;;;;;;;;;;6.01;64.73;101169.00;5026742;28;20370;-62
2023/03/11 11:02:24;;;;;;;;;;;;;;;5.99;63.96;101168.28;5018592;28;19913;-61
2023/03/11 11:05:02;;;;;;;;;;;;;;;5.89;63.08;101152.41;5016024;28;20578;-62
2023/03/11 11:07:29;;;;;;;;;;;;;;;5.90;63.53;101164.66;5016139;28;19952;-61
2023/03/11 11:10:11;;;;;;;;;;;;;;;6.00;64.05;101162.06;5011755;28;19924;-62
2023/03/11 11:12:57;;;;;;;;;;;;;;;5.93;62.67;101161.75;5017396;28;19921;-61
2023/03/11 11:15:36;;;;;;;;;;;;;;;5.87;62.50;101170.16;5022462;28;20556;-62
2023/03/11 11:18:03;;;;;;;;;;;;;;;5.98;62.71;101162.19;5020364;28;19992;-62
2023/03/11 11:20:29;;;;;;;;;;;;;;;6.07;63.25;101160.53;5015678;28;20387;-62
2023/03/11 11:22:55;;;;;;;;;;;;;;;6.17;63.01;101157.00;5011163;28;19940;-62
2023/03/11 11:25:34;;;;;;;;;;;;;;;6.26;63.44;101165.06;5024200;28;20016;-61
2023/03/11 11:28:01;;;;;;;;;;;;;;;6.17;60.40;101162.25;5026217;28;20314;-62
2023/03/11 11:30:27;;;;;;;;;;;;;;;6.10;60.72;101176.13;5025487;28;19917;-61
2023/03/11 11:32:54;;;;;;;;;;;;;;;6.03;59.76;101170.53;5018201;28;19925;-62
2023/03/11 11:35:20;;;;;;;;;;;;;;;5.90;58.42;101170.75;5015331;28;20008;-62
2023/03/11 11:37:47;;;;;;;;;;;;;;;5.86;58.26;101169.31;5026002;28;19928;-62
2023/03/11 11:40:15;;;;;;;;;;;;;;;5.79;58.23;101167.38;5015981;28;19922;-62
2023/03/11 11:42:52;;;;;;;;;;;;;;;5.74;57.06;101170.38;5020470;28;19924;-61
2023/03/11 11:45:20;;;;;;;;;;;;;;;5.83;56.47;101164.31;5021215;28;19968;-62
2023/03/11 11:47:48;;;;;;;;;;;;;;;6.00;56.34;101159.41;5018814;28;20018;-62
2023/03/11 11:50:16;;;;;;;;;;;;;;;6.13;54.89;101166.13;5020400;28;20356;-62
2023/03/11 11:52:45;;;;;;;;;;;;;;;6.12;54.43;101169.75;5021442;28;19944;-62
2023/03/11 11:55:23;;;;;;;;;;;;;;;6.13;54.39;101165.31;5020576;28;20059;-62
2023/03/11 11:57:50;;;;;;;;;;;;;;;6.22;55.43;101164.50;5028226;28;19925;-62
2023/03/11 12:00:19;;;;;;;;;;;;;;;6.42;55.04;101168.84;5019959;28;19963;-61
2023/03/11 12:03:03;;;;;;;;;;;;;;;6.41;54.20;101146.09;5014687;28;19925;-62
2023/03/11 12:05:30;;;;;;;;;;;;;;;6.64;54.65;101164.28;5019623;28;20383;-62
2023/03/11 12:08:10;;;;;;;;;;;;;;;6.70;54.21;101161.13;5023090;28;20394;-62
2023/03/11 12:10:48;;;;;;;;;;;;;;;6.72;53.11;101164.47;5023325;28;19956;-62
2023/03/11 12:13:13;;;;;;;;;;;;;;;6.77;52.91;101156.97;5020749;28;19930;-62
2023/03/11 12:15:41;;;;;;;;;;;;;;;6.85;52.90;101159.72;5025172;28;20425;-62
2023/03/11 12:18:12;;;;;;;;;;;;;;;6.93;53.14;101153.75;5019378;28;19921;-62
2023/03/11 12:20:42;;;;;;;;;;;;;;;7.03;52.53;101152.78;5028098;28;19920;-62
2023/03/11 12:23:07;;;;;;;;;;;;;;;7.17;53.21;101155.97;5025171;28;19917;-62
2023/03/11 12:25:59;;;;;;;;;;;;;;;7.35;53.48;101159.56;5024972;28;20024;-61
2023/03/11 12:28:24;;;;;;;;;;;;;;;7.53;53.76;101157.88;4997121;28;19921;-62
2023/03/11 12:30:51;;;;;;;;;;;;;;;7.65;53.32;101162.00;5021503;28;19932;-61
2023/03/11 12:33:18;;;;;;;;;;;;;;;7.79;52.47;101158.03;5030106;28;19917;-62
2023/03/11 12:35:48;;;;;;;;;;;;;;;7.74;50.90;101147.91;5033113;28;20378;-62
2023/03/11 12:38:19;;;;;;;;;;;;;;;7.59;49.93;101159.09;5016673;28;19983;-62